Time;durP1;ratioP1;P1;durP2;ratioP2;P2;SDS_P1;SDS_P2;PMS_P1;PMS_P2;Temp;Humidity;BMP_temperature;BMP_pressure;BME280_temperature;BME280_humidity;BME280_pressure;Samples;Min_cycle;Max_cycle;Signal;HPM_P1;HPM_P2
2022/07/31 00:00:10;;;;;;;2.72;0.80;;;;;;;20.73;100.00;99532.23;1766876;78;20931;-55
2022/07/31 00:02:38;;;;;;;0.95;0.80;;;;;;;20.73;100.00;99538.56;1771252;78;21175;-56
2022/07/31 00:05:05;;;;;;;0.80;0.60;;;;;;;20.71;100.00;99531.50;1756749;79;21744;-55
2022/07/31 00:07:32;;;;;;;1.52;0.70;;;;;;;20.69;100.00;99534.88;1763382;78;21035;-55
2022/07/31 00:09:58;;;;;;;1.92;0.80;;;;;;;20.67;100.00;99531.45;1764743;78;21633;-55
2022/07/31 00:12:25;;;;;;;1.35;0.88;;;;;;;20.64;100.00;99527.62;1770805;78;21064;-55
2022/07/31 00:14:51;;;;;;;2.08;0.70;;;;;;;20.61;100.00;99526.02;1765517;78;21100;-55
2022/07/31 00:17:18;;;;;;;1.35;0.70;;;;;;;20.58;100.00;99531.80;1766012;78;21148;-55
2022/07/31 00:19:44;;;;;;;1.30;0.60;;;;;;;20.56;100.00;99530.20;1766232;78;21032;-55
2022/07/31 00:22:12;;;;;;;1.25;0.57;;;;;;;20.53;100.00;99513.57;1762864;78;21427;-55
2022/07/31 00:24:39;;;;;;;1.70;0.70;;;;;;;20.53;100.00;99512.70;1766418;78;21119;-55
2022/07/31 00:27:05;;;;;;;1.85;0.72;;;;;;;20.52;100.00;99507.73;1772125;78;21137;-55
2022/07/31 00:29:31;;;;;;;2.58;0.70;;;;;;;20.52;100.00;99513.70;1760858;78;21107;-55
2022/07/31 00:31:58;;;;;;;2.58;0.70;;;;;;;20.52;100.00;99513.70;1762319;78;21831;-55
2022/07/31 00:34:24;;;;;;;1.10;1.00;;;;;;;20.51;100.00;99508.73;1770996;78;21083;-55
2022/07/31 00:36:51;;;;;;;4.30;1.27;;;;;;;20.47;100.00;99512.78;1763921;78;21328;-55
2022/07/31 00:39:17;;;;;;;3.90;0.90;;;;;;;20.45;100.00;99505.72;1767473;78;21107;-55
2022/07/31 00:41:44;;;;;;;3.50;0.85;;;;;;;20.39;100.00;99503.92;1764196;78;21028;-55
2022/07/31 00:44:11;;;;;;;2.33;0.80;;;;;;;20.36;100.00;99505.57;1771488;78;20906;-55
2022/07/31 00:46:39;;;;;;;3.40;0.70;;;;;;;20.32;100.00;99505.98;1765632;78;21372;-55
2022/07/31 00:49:08;;;;;;;0.95;0.70;;;;;;;20.29;100.00;99511.71;1768208;78;21511;-55
2022/07/31 00:51:36;;;;;;;2.45;0.80;;;;;;;20.25;100.00;99512.98;1763405;78;21697;-55
2022/07/31 00:54:04;;;;;;;1.52;1.17;;;;;;;20.21;100.00;99507.45;1768413;78;21044;-55
2022/07/31 00:56:30;;;;;;;2.45;0.90;;;;;;;20.18;100.00;99501.76;1764365;78;21127;-55
2022/07/31 00:58:57;;;;;;;1.10;1.00;;;;;;;20.19;100.00;99499.89;1766330;78;21439;-55
2022/07/31 01:01:23;;;;;;;1.62;1.15;;;;;;;20.16;100.00;99499.66;1764743;78;21087;-55
2022/07/31 01:03:49;;;;;;;2.58;1.17;;;;;;;20.14;100.00;99495.36;1768390;78;21752;-52
2022/07/31 01:06:16;;;;;;;2.67;0.70;;;;;;;20.11;100.00;99502.47;1763097;78;21632;-51
2022/07/31 01:08:42;;;;;;;2.80;0.82;;;;;;;20.07;100.00;99499.67;1766848;78;21049;-52
2022/07/31 01:11:38;;;;;;;2.47;0.70;;;;;;;20.03;100.00;99500.44;1766515;78;21103;-52
2022/07/31 01:14:06;;;;;;;0.95;0.70;;;;;;;19.99;100.00;99504.44;1745800;78;21055;-52
2022/07/31 01:16:39;;;;;;;1.60;0.78;;;;;;;19.94;100.00;99497.17;1769753;78;21129;-53
2022/07/31 01:19:14;;;;;;;5.45;0.78;;;;;;;19.91;100.00;99496.94;1772881;78;21657;-52
2022/07/31 01:21:45;;;;;;;1.45;0.80;;;;;;;19.89;100.00;99497.61;1766318;78;21260;-54
2022/07/31 01:24:19;;;;;;;1.15;0.90;;;;;;;19.89;100.00;99496.73;1768356;78;21083;-52
2022/07/31 01:26:54;;;;;;;1.02;0.90;;;;;;;19.87;100.00;99498.23;1738743;78;20934;-52
2022/07/31 01:29:27;;;;;;;2.22;1.20;;;;;;;19.84;100.00;99494.41;1743351;78;21765;-55
2022/07/31 01:32:09;;;;;;;1.30;1.02;;;;;;;19.82;100.00;99486.02;1763361;78;21462;-55
2022/07/31 01:34:51;;;;;;;1.47;1.00;;;;;;;19.80;100.00;99479.82;1750320;78;21119;-55
2022/07/31 01:37:33;;;;;;;1.45;1.00;;;;;;;19.77;100.00;99482.81;1775351;78;20926;-52
2022/07/31 01:40:13;;;;;;;0.75;0.75;;;;;;;19.74;100.00;99484.44;1766647;78;21005;-52
2022/07/31 01:42:45;;;;;;;1.75;1.12;;;;;;;19.71;100.00;99484.24;1767162;78;21510;-54
2022/07/31 01:45:13;;;;;;;2.42;0.80;;;;;;;19.69;100.00;99488.11;1764046;78;21638;-54
2022/07/31 01:47:39;;;;;;;3.75;0.85;;;;;;;19.65;100.00;99473.34;1765769;78;21088;-54
2022/07/31 01:50:08;;;;;;;1.02;0.80;;;;;;;19.63;100.00;99482.20;1762045;78;21603;-53
2022/07/31 01:52:34;;;;;;;3.65;1.20;;;;;;;19.61;100.00;99483.34;1764744;78;21024;-52
2022/07/31 01:55:01;;;;;;;2.77;0.90;;;;;;;19.58;100.00;99474.05;1761650;78;22018;-52
2022/07/31 01:57:31;;;;;;;3.42;1.10;;;;;;;19.55;100.00;99477.07;1765168;78;21041;-53
2022/07/31 02:00:01;;;;;;;2.58;1.00;;;;;;;19.52;100.00;99483.66;1764895;78;21064;-51
2022/07/31 02:02:40;;;;;;;2.60;1.00;;;;;;;19.48;100.00;99483.55;1770973;78;21251;-52
2022/07/31 02:05:10;;;;;;;1.17;0.98;;;;;;;19.42;100.00;99479.98;1761641;78;21077;-53
2022/07/31 02:07:39;;;;;;;1.95;0.90;;;;;;;19.38;100.00;99485.36;1769733;78;21075;-52
2022/07/31 02:10:09;;;;;;;2.08;0.90;;;;;;;19.34;100.00;99482.52;1772007;78;21094;-52
2022/07/31 02:12:36;;;;;;;1.80;0.85;;;;;;;19.30;100.00;99478.36;1771534;78;21084;-53
2022/07/31 02:15:05;;;;;;;3.55;1.05;;;;;;;19.26;100.00;99478.25;1765508;78;20980;-53
2022/07/31 02:17:33;;;;;;;4.97;1.00;;;;;;;19.23;100.00;99494.88;1747551;80;21048;-50
2022/07/31 02:20:07;;;;;;;0.80;0.80;;;;;;;19.21;100.00;99485.98;1731706;78;21374;-55
2022/07/31 02:22:33;;;;;;;2.90;0.80;;;;;;;19.20;100.00;99485.13;1749912;78;21020;-52
2022/07/31 02:25:01;;;;;;;1.07;0.90;;;;;;;19.19;100.00;99484.75;1761082;78;21112;-52
2022/07/31 02:27:27;;;;;;;2.35;0.90;;;;;;;19.19;100.00;99490.20;1744722;78;21040;-52
2022/07/31 02:29:54;;;;;;;4.67;1.20;;;;;;;19.21;100.00;99488.72;1740074;78;21060;-55
2022/07/31 02:32:20;;;;;;;5.90;1.30;;;;;;;19.20;100.00;99483.76;1759196;78;21574;-53
2022/07/31 02:34:46;;;;;;;3.50;1.10;;;;;;;19.21;100.00;99481.89;1763213;78;21112;-53
2022/07/31 02:37:13;;;;;;;2.15;1.00;;;;;;;19.20;100.00;99486.48;1761670;78;21036;-54
2022/07/31 02:39:39;;;;;;;4.40;0.93;;;;;;;19.20;100.00;99491.08;1762822;78;21555;-55
2022/07/31 02:42:06;;;;;;;4.17;1.20;;;;;;;19.18;100.00;99495.80;1770287;78;21041;-52
2022/07/31 02:44:33;;;;;;;1.00;0.90;;;;;;;19.16;100.00;99505.97;1767023;80;21112;-51
2022/07/31 02:47:04;;;;;;;1.35;1.00;;;;;;;19.12;100.00;99497.20;1767080;78;20945;-52
2022/07/31 02:49:32;;;;;;;1.27;0.93;;;;;;;19.09;100.00;99503.41;1764197;78;21040;-53
2022/07/31 02:51:59;;;;;;;0.98;0.80;;;;;;;19.05;100.00;99505.56;1766409;78;22102;-53
2022/07/31 02:54:25;;;;;;;4.78;0.90;;;;;;;19.01;100.00;99498.63;1765655;78;21131;-52
2022/07/31 02:56:52;;;;;;;2.15;0.90;;;;;;;19.00;100.00;99498.76;1767736;78;21547;-53
2022/07/31 02:59:20;;;;;;;1.98;1.05;;;;;;;19.00;100.00;99497.40;1767869;78;21108;-52
2022/07/31 03:01:58;;;;;;;1.62;0.70;;;;;;;19.01;100.00;99497.27;1766926;78;20922;-51
2022/07/31 03:04:25;;;;;;;3.33;0.90;;;;;;;19.01;100.00;99495.04;1770213;78;21584;-53
2022/07/31 03:06:53;;;;;;;1.87;1.00;;;;;;;19.01;100.00;99493.67;1774306;78;21733;-51
2022/07/31 03:09:19;;;;;;;1.60;0.85;;;;;;;19.03;100.00;99493.05;1774149;78;21342;-53
2022/07/31 03:11:48;;;;;;;1.00;0.90;;;;;;;19.07;100.00;99497.22;1767340;78;22082;-52
2022/07/31 03:14:15;;;;;;;2.25;0.70;;;;;;;19.11;100.00;99495.97;1765550;78;21048;-52
2022/07/31 03:16:41;;;;;;;1.90;0.90;;;;;;;19.15;100.00;99494.19;1771865;78;21111;-52
2022/07/31 03:19:08;;;;;;;2.40;0.80;;;;;;;19.19;100.00;99501.12;1731818;80;21666;-51
2022/07/31 03:21:34;;;;;;;2.83;0.80;;;;;;;19.23;100.00;99501.70;1735782;80;21140;-52
2022/07/31 03:24:03;;;;;;;0.80;0.78;;;;;;;19.25;100.00;99507.40;1766278;78;21369;-52
2022/07/31 03:26:29;;;;;;;1.07;0.72;;;;;;;19.27;100.00;99502.68;1765745;78;21123;-52
2022/07/31 03:28:56;;;;;;;0.68;0.65;;;;;;;19.31;100.00;99500.52;1762246;78;21552;-53
2022/07/31 03:31:24;;;;;;;1.95;0.80;;;;;;;19.35;100.00;99502.00;1724032;78;21140;-54
2022/07/31 03:33:50;;;;;;;1.15;0.90;;;;;;;19.41;100.00;99499.22;1771489;78;21827;-54
2022/07/31 03:36:17;;;;;;;1.15;0.70;;;;;;;19.44;100.00;99498.45;1767289;78;21068;-52
2022/07/31 03:38:43;;;;;;;2.65;0.70;;;;;;;19.50;100.00;99499.80;1769602;78;21100;-53
2022/07/31 03:41:11;;;;;;;1.75;0.80;;;;;;;19.54;100.00;99491.22;1762808;78;21055;-52
2022/07/31 03:43:38;;;;;;;1.57;0.60;;;;;;;19.61;100.00;99492.39;1763471;78;21457;-53
2022/07/31 03:46:05;;;;;;;5.45;0.80;;;;;;;19.66;100.00;99490.59;1761305;78;21131;-53
2022/07/31 03:48:31;;;;;;;2.15;0.60;;;;;;;19.73;100.00;99499.13;1760915;78;21076;-54
2022/07/31 03:50:57;;;;;;;2.95;0.57;;;;;;;19.76;100.00;99498.33;1767399;78;21073;-52
2022/07/31 03:53:25;;;;;;;3.30;0.70;;;;;;;19.80;100.00;99493.47;1726938;80;21121;-52
2022/07/31 03:55:51;;;;;;;0.70;0.70;;;;;;;19.84;100.00;99482.62;1750684;78;21456;-53
2022/07/31 03:58:18;;;;;;;0.82;0.68;;;;;;;19.89;100.00;99478.98;1744082;79;21503;-54
2022/07/31 04:00:44;;;;;;;0.75;0.60;;;;;;;19.94;100.00;99476.19;1745845;79;21068;-51
2022/07/31 04:03:12;;;;;;;0.60;0.60;;;;;;;20.00;100.00;99476.98;1764007;79;21626;-55
2022/07/31 04:05:43;;;;;;;1.70;0.60;;;;;;;20.08;100.00;99478.14;1748776;79;21049;-52
2022/07/31 04:08:09;;;;;;;2.50;0.70;;;;;;;20.15;100.00;99476.10;1743996;79;21057;-51
2022/07/31 04:10:36;;;;;;;1.65;0.80;;;;;;;20.21;100.00;99479.62;1746064;79;22458;-55
2022/07/31 04:13:04;;;;;;;0.93;0.60;;;;;;;20.29;100.00;99483.02;1747166;79;21430;-55
2022/07/31 04:15:32;;;;;;;0.80;0.62;;;;;;;20.33;100.00;99481.20;1742590;79;21060;-52
2022/07/31 04:17:58;;;;;;;1.57;0.60;;;;;;;20.40;100.00;99478.83;1751868;79;21040;-56
2022/07/31 04:20:27;;;;;;;1.52;0.60;;;;;;;20.47;100.00;99480.48;1749603;79;21049;-56
2022/07/31 04:22:53;;;;;;;0.85;0.50;;;;;;;20.54;100.00;99482.49;1752380;79;21575;-55
2022/07/31 04:25:22;;;;;;;3.27;0.40;;;;;;;20.63;100.00;99484.87;1747117;79;21126;-53
2022/07/31 04:27:50;;;;;;;1.67;0.50;;;;;;;20.73;100.00;99487.97;1745017;79;21037;-55
2022/07/31 04:30:16;;;;;;;0.90;0.40;;;;;;;20.83;100.00;99484.36;1745215;79;21083;-53
2022/07/31 04:32:45;;;;;;;0.50;0.30;;;;;;;20.94;100.00;99491.02;1750864;79;21613;-52
2022/07/31 04:35:13;;;;;;;0.72;0.50;;;;;;;21.03;100.00;99489.65;1750397;79;22173;-52
2022/07/31 04:37:40;;;;;;;0.93;0.30;;;;;;;21.12;100.00;99491.51;1751615;79;21005;-51
2022/07/31 04:40:09;;;;;;;1.98;0.40;;;;;;;21.22;100.00;99492.03;1720100;80;21072;-52
2022/07/31 04:42:36;;;;;;;0.70;0.42;;;;;;;21.30;100.00;99485.30;1755838;79;21040;-53
2022/07/31 04:45:04;;;;;;;1.27;0.35;;;;;;;21.37;100.00;99486.43;1747134;79;21057;-52
2022/07/31 04:47:31;;;;;;;2.05;0.30;;;;;;;21.44;100.00;99483.45;1751439;80;21147;-52
2022/07/31 04:49:58;;;;;;;2.47;0.40;;;;;;;21.50;100.00;99476.03;1746653;79;21302;-52
2022/07/31 04:52:25;;;;;;;0.95;0.30;;;;;;;21.57;100.00;99475.78;1737908;79;21060;-52
2022/07/31 04:54:52;;;;;;;3.72;0.40;;;;;;;21.65;100.00;99473.15;1752106;79;21068;-51
2022/07/31 04:57:19;;;;;;;0.57;0.35;;;;;;;21.71;100.00;99479.38;1748756;79;21083;-52
2022/07/31 04:59:46;;;;;;;0.80;0.47;;;;;;;21.79;100.00;99475.88;1745010;79;21490;-52
2022/07/31 05:02:14;;;;;;;1.62;0.30;;;;;;;21.85;100.00;99480.27;1741332;79;21523;-56
2022/07/31 05:04:41;;;;;;;0.82;0.30;;;;;;;21.94;100.00;99475.75;1738524;80;21139;-53
2022/07/31 05:07:07;;;;;;;6.42;0.30;;;;;;;22.04;100.00;99481.19;1741934;79;21498;-53
2022/07/31 05:09:34;;;;;;;0.60;0.30;;;;;;;22.14;100.00;99477.88;1741028;79;21169;-52
2022/07/31 05:12:02;;;;;;;4.37;0.30;;;;;;;22.26;100.00;99476.67;1738204;79;21825;-54
2022/07/31 05:14:29;;;;;;;2.27;0.40;;;;;;;22.37;100.00;99471.47;1740750;79;21060;-53
2022/07/31 05:16:56;;;;;;;2.77;0.42;;;;;;;22.48;100.00;99466.60;1747000;79;21594;-53
2022/07/31 05:19:28;;;;;;;1.67;0.20;;;;;;;22.59;100.00;99482.84;1745462;79;21084;-54
2022/07/31 05:21:56;;;;;;;2.85;0.37;;;;;;;22.70;100.00;99471.28;1701037;80;21017;-53
2022/07/31 05:24:31;;;;;;;1.22;0.28;;;;;;;22.78;100.00;99478.24;1736534;80;21785;-52
2022/07/31 05:27:02;;;;;;;1.05;0.30;;;;;;;22.88;100.00;99479.02;1758524;79;21092;-53
2022/07/31 05:29:30;;;;;;;1.27;0.30;;;;;;;22.95;100.00;99475.48;1742490;79;21092;-53
2022/07/31 05:31:56;;;;;;;1.37;0.30;;;;;;;23.00;100.00;99476.36;1755567;80;22293;-51
2022/07/31 05:34:23;;;;;;;4.08;0.30;;;;;;;23.07;100.00;99480.19;1743507;79;21155;-51
2022/07/31 05:36:49;;;;;;;0.62;0.30;;;;;;;23.12;100.00;99479.72;1746632;79;21583;-51
2022/07/31 05:39:19;;;;;;;0.30;0.20;;;;;;;23.18;100.00;99475.81;1744083;79;21041;-53
2022/07/31 05:41:47;;;;;;;2.50;0.20;;;;;;;23.25;100.00;99479.63;1705324;79;21148;-53
2022/07/31 05:44:16;;;;;;;2.65;0.20;;;;;;;23.31;100.00;99478.11;1749829;79;21087;-54
2022/07/31 05:46:45;;;;;;;0.45;0.20;;;;;;;23.37;100.00;99477.49;1736980;79;21075;-52
2022/07/31 05:49:11;;;;;;;0.50;0.30;;;;;;;23.44;100.00;99484.56;1746767;79;21535;-52
2022/07/31 05:51:38;;;;;;;0.42;0.20;;;;;;;23.51;100.00;99474.68;1747020;79;21131;-51
2022/07/31 05:54:05;;;;;;;0.40;0.20;;;;;;;23.56;100.00;99475.07;1722314;79;20933;-53
2022/07/31 05:56:49;;;;;;;2.42;0.30;;;;;;;23.63;100.00;99466.01;1742025;79;21351;-52
2022/07/31 05:59:18;;;;;;;0.20;0.20;;;;;;;23.71;100.00;99467.42;1744919;79;21717;-55
2022/07/31 06:01:46;;;;;;;1.98;0.30;;;;;;;23.78;100.00;99470.36;1743599;79;21174;-55
2022/07/31 06:04:12;;;;;;;1.42;0.50;;;;;;;23.84;100.00;99467.45;1738751;79;21352;-53
2022/07/31 06:06:43;;;;;;;0.90;0.30;;;;;;;23.89;100.00;99463.20;1740855;79;21132;-53
2022/07/31 06:09:10;;;;;;;0.70;0.30;;;;;;;23.92;100.00;99466.98;1742111;79;21064;-55
2022/07/31 06:11:39;;;;;;;1.05;0.20;;;;;;;23.94;100.00;99466.30;1745092;79;21124;-56
2022/07/31 06:14:07;;;;;;;0.80;0.20;;;;;;;23.98;100.00;99465.47;1742685;79;21190;-54
2022/07/31 06:16:38;;;;;;;0.35;0.20;;;;;;;24.02;100.00;99466.33;1727621;79;21132;-55
2022/07/31 06:19:04;;;;;;;2.08;0.20;;;;;;;24.09;100.00;99463.27;1748911;79;21024;-54
2022/07/31 06:21:31;;;;;;;0.72;0.30;;;;;;;24.13;100.00;99472.91;1746723;79;21118;-54
2022/07/31 06:23:58;;;;;;;1.25;0.30;;;;;;;24.19;100.00;99463.63;1743774;79;21108;-53
2022/07/31 06:26:30;;;;;;;1.40;0.30;;;;;;;24.24;100.00;99462.16;1750713;79;22064;-57
2022/07/31 06:28:56;;;;;;;4.45;0.30;;;;;;;24.30;100.00;99453.73;1737219;79;21100;-54
2022/07/31 06:31:22;;;;;;;1.17;0.28;;;;;;;24.35;100.00;99452.70;1742572;79;21083;-54
2022/07/31 06:33:51;;;;;;;3.92;0.23;;;;;;;24.39;100.00;99449.46;1738584;79;21058;-54
2022/07/31 06:36:19;;;;;;;0.53;0.25;;;;;;;24.43;100.00;99452.72;1749708;79;21140;-55
2022/07/31 06:38:56;;;;;;;0.35;0.20;;;;;;;24.47;100.00;99448.61;1741707;79;21131;-52
2022/07/31 06:41:43;;;;;;;0.75;0.20;;;;;;;24.51;100.00;99440.34;1747969;79;21112;-56
2022/07/31 06:44:15;;;;;;;0.40;0.20;;;;;;;24.56;100.00;99437.10;1716226;80;21115;-52
2022/07/31 06:46:50;;;;;;;0.37;0.20;;;;;;;24.62;100.00;99433.66;1705778;79;21081;-55
2022/07/31 06:49:25;;;;;;;0.30;0.20;;;;;;;24.68;100.00;99432.96;1739034;79;21137;-55
2022/07/31 06:51:51;;;;;;;0.30;0.30;;;;;;;24.70;100.00;99433.14;1736183;79;21128;-53
2022/07/31 06:54:18;;;;;;;1.22;0.30;;;;;;;24.74;100.00;99422.16;1755595;78;21613;-52
2022/07/31 06:56:44;;;;;;;1.55;0.20;;;;;;;24.79;100.00;99429.36;1749734;79;21155;-54
2022/07/31 06:59:11;;;;;;;0.78;0.20;;;;;;;24.85;100.00;99430.04;1742350;79;21130;-53
2022/07/31 07:01:37;;;;;;;2.47;0.20;;;;;;;24.91;100.00;99432.67;1745413;79;21172;-53
2022/07/31 07:04:04;;;;;;;9.45;0.53;;;;;;;24.97;100.00;99429.73;1744146;79;22474;-54
2022/07/31 07:06:31;;;;;;;2.17;0.20;;;;;;;25.03;100.00;99430.41;1726959;79;20953;-54
2022/07/31 07:08:58;;;;;;;3.02;0.40;;;;;;;25.08;100.00;99428.01;1749765;78;21036;-55
2022/07/31 07:11:25;;;;;;;6.03;0.30;;;;;;;25.18;100.00;99430.03;1730308;79;21097;-57
2022/07/31 07:13:51;;;;;;;1.67;0.20;;;;;;;25.24;100.00;99425.22;1757732;78;21147;-55
2022/07/31 07:16:18;;;;;;;1.05;0.20;;;;;;;25.31;100.00;99421.23;1756454;78;21428;-56
2022/07/31 07:18:45;;;;;;;2.15;0.23;;;;;;;25.38;100.00;99417.61;1744247;79;21092;-56
2022/07/31 07:21:12;;;;;;;16.77;0.80;;;;;;;25.44;100.00;99415.51;1745503;79;21506;-54
2022/07/31 07:23:38;;;;;;;3.52;0.20;;;;;;;25.50;100.00;99409.31;1728981;79;21112;-55
2022/07/31 07:26:10;;;;;;;1.02;0.30;;;;;;;25.57;100.00;99413.59;1746530;79;21099;-56
2022/07/31 07:28:37;;;;;;;0.68;0.30;;;;;;;25.66;100.00;99415.31;1747592;79;21539;-54
2022/07/31 07:31:04;;;;;;;1.02;0.30;;;;;;;25.73;100.00;99414.07;1747294;79;21026;-55
2022/07/31 07:33:31;;;;;;;3.60;0.30;;;;;;;25.80;100.00;99421.96;1745161;79;21083;-55
2022/07/31 07:35:57;;;;;;;0.50;0.20;;;;;;;25.85;100.00;99422.30;1743005;79;21060;-56
2022/07/31 07:38:24;;;;;;;0.50;0.30;;;;;;;25.90;100.00;99417.09;1739240;79;21079;-53
2022/07/31 07:40:51;;;;;;;0.40;0.20;;;;;;;25.96;100.00;99408.95;1736659;79;21550;-53
2022/07/31 07:43:17;;;;;;;2.65;0.30;;;;;;;26.02;100.00;99404.64;1743444;79;21136;-52
2022/07/31 07:45:44;;;;;;;0.42;0.30;;;;;;;26.06;100.00;99403.22;1739640;79;21108;-54
2022/07/31 07:48:10;;;;;;;0.82;0.50;;;;;;;26.12;100.00;99396.97;1745310;79;21088;-55
2022/07/31 07:50:50;;;;;;;2.17;0.20;;;;;;;26.19;100.00;99399.36;1741608;79;21125;-53
2022/07/31 07:53:28;;;;;;;3.87;0.30;;;;;;;26.25;100.00;99404.14;1745634;79;21240;-54
2022/07/31 07:55:57;;;;;;;0.45;0.20;;;;;;;26.30;100.00;99404.47;1733480;79;21068;-53
2022/07/31 07:58:42;;;;;;;4.53;0.20;;;;;;;26.36;100.00;99406.52;1741669;79;21100;-56
2022/07/31 08:01:27;;;;;;;1.65;0.20;;;;;;;26.42;100.00;99404.06;1739262;79;21111;-53
2022/07/31 08:03:55;;;;;;;0.40;0.30;;;;;;;26.47;100.00;99398.83;1746346;79;21029;-55
2022/07/31 08:06:22;;;;;;;3.70;0.30;;;;;;;26.52;100.00;99399.16;1745211;79;21233;-54
2022/07/31 08:08:49;;;;;;;1.05;0.30;;;;;;;26.58;100.00;99403.94;1739863;79;21099;-53
2022/07/31 08:11:20;;;;;;;1.75;0.40;;;;;;;26.63;100.00;99391.80;1737563;79;21499;-56
2022/07/31 08:13:58;;;;;;;0.40;0.20;;;;;;;26.65;100.00;99391.96;1738204;79;21499;-56
2022/07/31 08:16:41;;;;;;;0.37;0.20;;;;;;;26.73;100.00;99399.31;1751965;79;21191;-56
2022/07/31 08:19:08;;;;;;;1.47;0.20;;;;;;;26.80;100.00;99386.48;1743598;79;21245;-55
2022/07/31 08:21:35;;;;;;;1.30;0.20;;;;;;;26.86;100.00;99391.80;1741703;79;21134;-54
2022/07/31 08:24:01;;;;;;;1.17;0.20;;;;;;;26.90;100.00;99385.70;1744319;79;21053;-57
2022/07/31 08:27:22;;;;;;;3.42;0.20;;;;;;;26.96;100.00;99386.91;1743996;79;21092;-58
2022/07/31 08:28:56;;;;;;;4.20;0.40;;;;;;;27.00;100.00;99384.95;1740790;79;20911;-56
2022/07/31 08:31:24;;;;;;;0.25;0.20;;;;;;;27.05;100.00;99378.88;1748402;79;21092;-54
2022/07/31 08:34:07;;;;;;;0.42;0.20;;;;;;;27.09;100.00;99378.81;1735397;79;21116;-54
2022/07/31 08:36:36;;;;;;;2.37;0.35;;;;;;;27.15;100.00;99374.43;1721507;79;21063;-56
2022/07/31 08:39:03;;;;;;;1.37;0.30;;;;;;;27.17;100.00;99379.25;1743929;79;21374;-55
2022/07/31 08:41:40;;;;;;;1.37;0.20;;;;;;;27.19;100.00;99371.64;1742909;79;21668;-58
2022/07/31 08:44:08;;;;;;;0.62;0.30;;;;;;;27.18;100.00;99380.97;1742545;79;21770;-56
2022/07/31 08:46:38;;;;;;;2.47;0.20;;;;;;;27.19;100.00;99375.78;1730284;80;21132;-55
2022/07/31 08:49:06;;;;;;;3.02;0.30;;;;;;;27.20;100.00;99374.22;1748568;80;21538;-54
2022/07/31 08:51:37;;;;;;;1.85;0.25;;;;;;;27.27;100.00;99376.55;1772450;78;22258;-54
2022/07/31 08:54:21;;;;;;;33.10;1.07;;;;;;;27.33;100.00;99365.25;1742389;80;21059;-57
2022/07/31 08:56:51;;;;;;;8.38;0.50;;;;;;;27.40;100.00;99360.15;1766593;78;22005;-56
2022/07/31 08:59:17;;;;;;;0.53;0.30;;;;;;;27.45;100.00;99361.84;1746623;79;21078;-57
2022/07/31 09:01:43;;;;;;;0.33;0.20;;;;;;;27.51;100.00;99357.44;1768870;78;21625;-55
2022/07/31 09:04:10;;;;;;;0.50;0.20;;;;;;;27.54;100.00;99359.86;1767223;78;22895;-56
2022/07/31 09:06:38;;;;;;;0.37;0.20;;;;;;;27.58;100.00;99354.27;1766606;78;21111;-58
2022/07/31 09:09:04;;;;;;;1.40;0.30;;;;;;;27.63;100.00;99345.41;1738305;80;21606;-55
2022/07/31 09:11:31;;;;;;;1.72;0.30;;;;;;;27.65;100.00;99344.67;1772017;78;21052;-55
2022/07/31 09:14:03;;;;;;;0.90;0.30;;;;;;;27.68;100.00;99346.53;1745789;79;21098;-56
2022/07/31 09:16:36;;;;;;;0.40;0.20;;;;;;;27.73;100.00;99334.36;1748960;79;21137;-55
2022/07/31 09:19:04;;;;;;;0.65;0.20;;;;;;;27.76;100.00;99336.74;1770977;78;21457;-54
2022/07/31 09:21:40;;;;;;;0.57;0.30;;;;;;;27.79;100.00;99334.12;1769791;78;21125;-54
2022/07/31 09:24:09;;;;;;;0.42;0.20;;;;;;;27.82;100.00;99331.81;1764697;78;21575;-56
2022/07/31 09:26:36;;;;;;;0.50;0.20;;;;;;;27.86;100.00;99335.06;1766220;78;21119;-56
2022/07/31 09:29:07;;;;;;;1.25;0.30;;;;;;;27.92;100.00;99335.65;1771390;78;21838;-55
2022/07/31 09:31:32;;;;;;;1.77;0.20;;;;;;;27.97;100.00;99335.95;1775935;78;21079;-57
2022/07/31 09:34:00;;;;;;;0.50;0.30;;;;;;;28.03;100.00;99342.59;1765812;78;21113;-55
2022/07/31 09:37:47;;;;;;;1.55;0.30;;;;;;;28.09;100.00;99328.83;1778153;78;22507;-58
2022/07/31 09:40:36;;;;;;;2.33;0.20;;;;;;;28.08;100.00;99334.02;1749145;80;21479;-56
2022/07/31 09:43:26;;;;;;;1.50;0.20;;;;;;;28.13;100.00;99326.53;1758476;80;21095;-55
2022/07/31 09:45:58;;;;;;;5.92;0.30;;;;;;;28.17;100.00;99319.05;1745875;80;21050;-57
2022/07/31 09:48:25;;;;;;;2.37;0.30;;;;;;;28.17;100.00;99317.66;1716717;81;21021;-54
2022/07/31 09:50:56;;;;;;;1.45;0.45;;;;;;;28.17;100.00;99327.34;1717030;81;21426;-56
2022/07/31 09:53:23;;;;;;;4.60;0.30;;;;;;;28.16;100.00;99315.95;1715173;81;21023;-55
2022/07/31 09:55:53;;;;;;;0.53;0.30;;;;;;;28.16;100.00;99307.64;1713510;82;21168;-56
2022/07/31 09:58:22;;;;;;;1.37;0.28;;;;;;;28.16;100.00;99314.56;1700367;82;21093;-56
2022/07/31 10:00:50;;;;;;;1.07;0.30;;;;;;;28.16;100.00;99306.78;1701653;82;21061;-55
2022/07/31 10:03:17;;;;;;;2.95;0.30;;;;;;;28.16;100.00;99310.41;1671307;82;21087;-55
2022/07/31 10:05:45;;;;;;;2.22;0.20;;;;;;;28.20;100.00;99305.35;1662355;82;21195;-54
2022/07/31 10:08:16;;;;;;;0.42;0.23;;;;;;;28.24;100.00;99317.75;1695361;82;21767;-54
2022/07/31 10:10:50;;;;;;;2.15;0.40;;;;;;;28.29;100.00;99317.14;1697864;82;21127;-56
2022/07/31 10:13:22;;;;;;;3.47;0.30;;;;;;;28.34;100.00;99309.09;1696837;82;21132;-55
2022/07/31 10:15:49;;;;;;;0.42;0.30;;;;;;;28.36;100.00;99307.84;1699782;82;21629;-56
2022/07/31 10:18:37;;;;;;;2.87;0.30;;;;;;;28.37;100.00;99304.03;1705905;82;21179;-54
2022/07/31 10:21:11;;;;;;;2.70;0.30;;;;;;;28.38;100.00;99302.13;1692988;82;21172;-56
2022/07/31 10:23:52;;;;;;;7.55;0.40;;;;;;;28.39;100.00;99305.22;1699652;82;21096;-57
2022/07/31 10:26:22;;;;;;;4.33;0.30;;;;;;;28.36;100.00;99299.55;1698201;82;21573;-55
2022/07/31 10:28:48;;;;;;;2.30;0.30;;;;;;;28.35;100.00;99300.59;1695867;82;21487;-57
2022/07/31 10:31:15;;;;;;;3.62;0.40;;;;;;;28.37;100.00;99297.11;1697098;82;21137;-55
2022/07/31 10:33:43;;;;;;;1.12;0.20;;;;;;;28.42;100.00;99308.95;1695883;82;22164;-56
2022/07/31 10:36:34;;;;;;;3.80;0.28;;;;;;;28.46;100.00;99295.06;1693003;82;21389;-56
2022/07/31 10:39:10;;;;;;;1.50;0.25;;;;;;;28.47;100.00;99292.63;1685359;83;21138;-55
2022/07/31 10:42:17;;;;;;;2.70;0.30;;;;;;;28.50;100.00;99292.20;1677739;83;21117;-56
2022/07/31 10:44:59;;;;;;;0.30;0.20;;;;;;;28.52;100.00;99293.73;1680291;83;21081;-57
2022/07/31 10:47:27;;;;;;;0.87;0.30;;;;;;;28.55;100.00;99289.19;1681320;83;21499;-56
2022/07/31 10:50:13;;;;;;;4.25;0.30;;;;;;;28.57;100.00;99284.31;1681791;83;21496;-55
2022/07/31 10:52:42;;;;;;;1.15;1.05;;;;;;;28.54;100.00;99285.23;1675496;83;21427;-54
2022/07/31 10:55:24;;;;;;;0.82;0.30;;;;;;;28.51;100.00;99279.55;1680462;83;21108;-55
2022/07/31 10:58:15;;;;;;;1.37;0.20;;;;;;;28.52;100.00;99277.11;1683051;83;21089;-56
2022/07/31 11:00:52;;;;;;;1.75;0.30;;;;;;;28.56;100.00;99281.73;1682775;83;21812;-57
2022/07/31 11:03:30;;;;;;;0.90;0.23;;;;;;;28.59;100.00;99287.71;1627086;83;21085;-55
2022/07/31 11:06:17;;;;;;;2.87;0.30;;;;;;;28.61;100.00;99273.67;1662129;83;21445;-54
2022/07/31 11:08:58;;;;;;;0.88;0.30;;;;;;;28.62;100.00;99265.70;1662396;84;21113;-56
2022/07/31 11:11:41;;;;;;;1.57;0.30;;;;;;;28.66;100.00;99274.47;1686186;83;21088;-55
2022/07/31 11:14:34;;;;;;;1.85;0.30;;;;;;;28.68;100.00;99266.79;1628525;86;21770;-56
2022/07/31 11:17:35;;;;;;;1.07;0.20;;;;;;;28.72;100.00;99280.58;1677993;83;21133;-56
2022/07/31 11:20:21;;;;;;;0.78;0.20;;;;;;;28.78;100.00;99262.65;1668261;83;21117;-56
2022/07/31 11:23:02;;;;;;;0.75;0.30;;;;;;;28.81;100.00;99262.25;1690117;83;21037;-57
2022/07/31 11:25:31;;;;;;;0.30;0.28;;;;;;;28.82;100.00;99265.88;1687227;83;21005;-56
2022/07/31 11:28:10;;;;;;;1.75;0.30;;;;;;;28.82;100.00;99248.73;1724671;81;22396;-55
2022/07/31 11:30:56;;;;;;;1.40;0.28;;;;;;;28.81;100.00;99255.33;1723537;81;21041;-56
2022/07/31 11:33:41;;;;;;;1.12;0.30;;;;;;;28.82;100.00;99250.12;1726326;81;21109;-56
2022/07/31 11:36:19;;;;;;;0.70;0.45;;;;;;;28.85;100.00;99255.23;1726848;81;21046;-56
2022/07/31 11:38:54;;;;;;;0.42;0.30;;;;;;;28.84;100.00;99257.67;1729098;81;22083;-54